createdAt,value
2018-11-22T00:00:32.312Z,1015.8
2018-11-22T00:01:34.316Z,1015.8
2018-11-22T00:02:36.337Z,1015.8
2018-11-22T00:03:38.632Z,1015.8
2018-11-22T00:04:40.640Z,1015.8
2018-11-22T00:05:42.660Z,1015.8
2018-11-22T00:06:44.664Z,1015.8
2018-11-22T00:07:46.675Z,1015.7
2018-11-22T00:08:48.680Z,1015.8
2018-11-22T00:09:50.695Z,1015.8
2018-11-22T00:10:52.700Z,1015.8
2018-11-22T00:11:54.709Z,1015.8
2018-11-22T00:12:56.728Z,1015.8
2018-11-22T00:13:58.726Z,1015.8
2018-11-22T00:15:00.747Z,1015.8
2018-11-22T00:16:02.758Z,1015.7
2018-11-22T00:17:04.772Z,1015.7
2018-11-22T00:18:06.775Z,1015.7
2018-11-22T00:19:08.791Z,1015.7
2018-11-22T00:20:10.797Z,1015.6
2018-11-22T00:21:13.083Z,1015.6
2018-11-22T00:22:15.107Z,1015.7
2018-11-22T00:23:17.106Z,1015.7
2018-11-22T00:24:19.502Z,1015.6
2018-11-22T00:25:21.517Z,1015.7
2018-11-22T00:26:24.103Z,1015.7
2018-11-22T00:27:26.113Z,1015.7
2018-11-22T00:28:28.514Z,1015.6
2018-11-22T00:29:30.517Z,1015.6
2018-11-22T00:30:32.811Z,1015.6
2018-11-22T00:31:34.831Z,1015.6
2018-11-22T00:32:36.843Z,1015.6
2018-11-22T00:33:38.848Z,1015.6
2018-11-22T00:34:40.866Z,1015.6
2018-11-22T00:35:42.869Z,1015.6
2018-11-22T00:36:44.874Z,1015.6
2018-11-22T00:37:46.896Z,1015.6
2018-11-22T00:38:48.897Z,1015.5
2018-11-22T00:39:50.911Z,1015.5
2018-11-22T00:40:53.226Z,1015.6
2018-11-22T00:41:55.546Z,1015.6
2018-11-22T00:42:57.556Z,1015.6
2018-11-22T00:44:00.258Z,1015.6
2018-11-22T00:45:02.560Z,1015.6
2018-11-22T00:46:04.846Z,1015.6
2018-11-22T00:47:06.855Z,1015.7
2018-11-22T00:48:08.876Z,1015.7
2018-11-22T00:49:10.885Z,1015.7
2018-11-22T00:50:12.898Z,1015.7
2018-11-22T00:51:15.290Z,1015.8
2018-11-22T00:52:17.306Z,1015.7
2018-11-22T00:53:19.322Z,1015.7
2018-11-22T00:54:21.322Z,1015.7
2018-11-22T00:55:23.346Z,1015.7
2018-11-22T00:56:25.344Z,1015.8
2018-11-22T00:57:27.635Z,1015.8
2018-11-22T00:58:29.651Z,1015.7
2018-11-22T00:59:31.659Z,1015.7
2018-11-22T01:00:33.667Z,1015.8
2018-11-22T01:01:35.969Z,1015.7
2018-11-22T01:02:37.974Z,1015.8
2018-11-22T01:03:39.984Z,1015.7
2018-11-22T01:04:42.008Z,1015.7
2018-11-22T01:05:44.020Z,1015.7
2018-11-22T01:06:46.030Z,1015.7
2018-11-22T01:07:48.328Z,1015.7
2018-11-22T01:08:50.331Z,1015.6
2018-11-22T01:09:52.339Z,1015.7
2018-11-22T01:10:54.351Z,1015.7
2018-11-22T01:11:56.737Z,1015.7
2018-11-22T01:12:58.756Z,1015.7
2018-11-22T01:14:00.771Z,1015.7
2018-11-22T01:15:03.176Z,1015.7
2018-11-22T01:16:05.183Z,1015.7
2018-11-22T01:17:07.200Z,1015.7
2018-11-22T01:18:09.211Z,1015.7
2018-11-22T01:19:11.885Z,1015.7
2018-11-22T01:20:13.909Z,1015.7
2018-11-22T01:21:15.906Z,1015.7
2018-11-22T01:22:17.915Z,1015.7
2018-11-22T01:23:19.921Z,1015.7
2018-11-22T01:24:21.941Z,1015.7
2018-11-22T01:25:23.951Z,1015.7
2018-11-22T01:26:25.962Z,1015.6
2018-11-22T01:27:27.982Z,1015.6
2018-11-22T01:28:29.980Z,1015.6
2018-11-22T01:29:32.388Z,1015.7
2018-11-22T01:30:34.402Z,1015.7
2018-11-22T01:31:36.405Z,1015.7
2018-11-22T01:32:38.419Z,1015.7
2018-11-22T01:33:40.437Z,1015.7
2018-11-22T01:34:42.445Z,1015.6
2018-11-22T01:35:45.060Z,1015.6
2018-11-22T01:36:47.071Z,1015.6
2018-11-22T01:37:49.075Z,1015.7
2018-11-22T01:38:51.084Z,1015.7
2018-11-22T01:39:53.408Z,1015.6
2018-11-22T01:40:55.413Z,1015.7
2018-11-22T01:41:57.482Z,1015.6
2018-11-22T01:42:59.794Z,1015.7
2018-11-22T01:44:01.801Z,1015.6
2018-11-22T01:45:03.826Z,1015.6
2018-11-22T01:46:05.833Z,1015.6
2018-11-22T01:47:07.845Z,1015.6
2018-11-22T01:48:09.851Z,1015.6
2018-11-22T01:49:12.151Z,1015.6
2018-11-22T01:50:14.158Z,1015.6
2018-11-22T01:51:16.170Z,1015.6
2018-11-22T01:52:18.184Z,1015.6
2018-11-22T01:53:20.185Z,1015.6
2018-11-22T01:54:22.206Z,1015.6
2018-11-22T01:55:24.216Z,1015.6
2018-11-22T01:56:26.231Z,1015.6
2018-11-22T01:57:28.236Z,1015.6
2018-11-22T01:58:30.253Z,1015.6
2018-11-22T01:59:32.547Z,1015.6
2018-11-22T02:00:34.559Z,1015.6
2018-11-22T02:01:36.581Z,1015.6
2018-11-22T02:02:38.589Z,1015.6
2018-11-22T02:03:40.602Z,1015.6
2018-11-22T02:04:42.889Z,1015.6
2018-11-22T02:05:44.906Z,1015.5
2018-11-22T02:06:46.922Z,1015.6
2018-11-22T02:07:49.209Z,1015.6
2018-11-22T02:08:51.524Z,1015.6
2018-11-22T02:09:53.533Z,1015.6
2018-11-22T02:10:55.532Z,1015.6
2018-11-22T02:11:57.543Z,1015.6
2018-11-22T02:12:59.562Z,1015.7
2018-11-22T02:14:02.163Z,1015.6
2018-11-22T02:15:04.749Z,1015.6
2018-11-22T02:16:07.053Z,1015.7
2018-11-22T02:17:09.057Z,1015.6
2018-11-22T02:18:11.077Z,1015.6
2018-11-22T02:19:13.083Z,1015.6
2018-11-22T02:20:15.097Z,1015.7
2018-11-22T02:21:17.397Z,1015.6
2018-11-22T02:22:19.693Z,1015.7
2018-11-22T02:23:21.699Z,1015.6
2018-11-22T02:24:23.710Z,1015.6
2018-11-22T02:25:25.731Z,1015.6
2018-11-22T02:26:27.733Z,1015.6
2018-11-22T02:27:29.754Z,1015.6
2018-11-22T02:28:31.766Z,1015.6
2018-11-22T02:29:33.785Z,1015.5
2018-11-22T02:30:35.792Z,1015.6
2018-11-22T02:31:37.816Z,1015.6
2018-11-22T02:32:40.107Z,1015.6
2018-11-22T02:33:42.114Z,1015.6
2018-11-22T02:34:44.702Z,1015.6
2018-11-22T02:35:46.704Z,1015.6
2018-11-22T02:36:48.713Z,1015.6
2018-11-22T02:37:50.729Z,1015.6
2018-11-22T02:38:53.038Z,1015.7
2018-11-22T02:39:55.043Z,1015.6
2018-11-22T02:40:57.061Z,1015.6
2018-11-22T02:41:59.455Z,1015.6
2018-11-22T02:43:01.468Z,1015.6
2018-11-22T02:44:03.497Z,1015.7
2018-11-22T02:45:05.794Z,1015.6
2018-11-22T02:46:08.186Z,1015.6
2018-11-22T02:47:10.490Z,1015.7
2018-11-22T02:48:13.075Z,1015.6
2018-11-22T02:49:15.084Z,1015.6
2018-11-22T02:50:17.105Z,1015.5
2018-11-22T02:51:19.487Z,1015.5
2018-11-22T02:52:21.514Z,1015.6
2018-11-22T02:53:23.530Z,1015.6
2018-11-22T02:54:25.832Z,1015.6
2018-11-22T02:55:28.404Z,1015.6
2018-11-22T02:56:30.421Z,1015.6
2018-11-22T02:57:32.432Z,1015.7
2018-11-22T02:58:35.126Z,1015.6
2018-11-22T02:59:37.149Z,1015.6
2018-11-22T03:00:39.149Z,1015.6
2018-11-22T03:01:41.165Z,1015.6
2018-11-22T03:02:43.454Z,1015.5
2018-11-22T03:03:45.471Z,1015.6
2018-11-22T03:04:47.767Z,1015.6
2018-11-22T03:05:49.784Z,1015.6
2018-11-22T03:06:52.082Z,1015.6
2018-11-22T03:07:54.081Z,1015.6
2018-11-22T03:08:56.103Z,1015.6
2018-11-22T03:09:58.685Z,1015.6
2018-11-22T03:11:00.968Z,1015.6
2018-11-22T03:12:03.296Z,1015.6
2018-11-22T03:13:05.314Z,1015.6
2018-11-22T03:14:07.321Z,1015.5
2018-11-22T03:15:09.724Z,1015.5
2018-11-22T03:16:11.734Z,1015.5
2018-11-22T03:17:13.735Z,1015.6
2018-11-22T03:18:16.032Z,1015.5
2018-11-22T03:19:18.038Z,1015.5
2018-11-22T03:20:20.050Z,1015.5
2018-11-22T03:21:22.070Z,1015.5
2018-11-22T03:22:24.361Z,1015.5
2018-11-22T03:23:26.380Z,1015.5
2018-11-22T03:24:28.378Z,1015.5
2018-11-22T03:25:30.408Z,1015.5
2018-11-22T03:26:32.410Z,1015.5
2018-11-22T03:27:34.812Z,1015.5
2018-11-22T03:28:37.102Z,1015.5
2018-11-22T03:29:39.117Z,1015.5
2018-11-22T03:30:41.131Z,1015.5
2018-11-22T03:31:43.416Z,1015.5
2018-11-22T03:32:45.437Z,1015.5
2018-11-22T03:33:48.973Z,1015.5
2018-11-22T03:34:50.983Z,1015.5
2018-11-22T03:35:52.988Z,1015.5
2018-11-22T03:36:55.006Z,1015.6
2018-11-22T03:37:57.010Z,1015.5
2018-11-22T03:38:59.028Z,1015.5
2018-11-22T03:40:01.327Z,1015.5
2018-11-22T03:41:03.725Z,1015.5
2018-11-22T03:42:06.134Z,1015.5
2018-11-22T03:43:08.427Z,1015.5
2018-11-22T03:44:10.438Z,1015.5
2018-11-22T03:45:12.447Z,1015.5
2018-11-22T03:46:14.466Z,1015.5
2018-11-22T03:47:16.758Z,1015.5
2018-11-22T03:48:18.775Z,1015.5
2018-11-22T03:49:20.789Z,1015.5
2018-11-22T03:50:22.791Z,1015.5
2018-11-22T03:51:24.804Z,1015.5
2018-11-22T03:52:26.817Z,1015.5
2018-11-22T03:53:28.855Z,1015.5
2018-11-22T03:54:30.887Z,1015.5
2018-11-22T03:55:33.184Z,1015.5
2018-11-22T03:56:35.246Z,1015.5
2018-11-22T03:57:37.530Z,1015.5
2018-11-22T03:58:39.547Z,1015.4
2018-11-22T03:59:41.561Z,1015.4
2018-11-22T04:00:43.581Z,1015.5
2018-11-22T04:01:45.589Z,1015.5
2018-11-22T04:02:47.611Z,1015.4
2018-11-22T04:03:49.618Z,1015.4
2018-11-22T04:04:52.015Z,1015.4
2018-11-22T04:05:54.317Z,1015.4
2018-11-22T04:06:56.700Z,1015.5
2018-11-22T04:07:58.709Z,1015.4
2018-11-22T04:09:01.031Z,1015.4
2018-11-22T04:10:03.051Z,1015.4
2018-11-22T04:11:05.342Z,1015.5
2018-11-22T04:12:07.745Z,1015.4
2018-11-22T04:13:09.755Z,1015.5
2018-11-22T04:14:12.043Z,1015.4
2018-11-22T04:15:14.667Z,1015.4
2018-11-22T04:16:16.964Z,1015.4
2018-11-22T04:17:19.258Z,1015.4
2018-11-22T04:18:21.270Z,1015.5
2018-11-22T04:19:23.287Z,1015.4
2018-11-22T04:20:25.291Z,1015.5
2018-11-22T04:21:27.309Z,1015.5
2018-11-22T04:22:29.319Z,1015.5
2018-11-22T04:23:32.004Z,1015.5
2018-11-22T04:24:34.316Z,1015.5
2018-11-22T04:25:36.714Z,1015.5
2018-11-22T04:26:39.105Z,1015.5
2018-11-22T04:27:41.409Z,1015.5
2018-11-22T04:28:43.722Z,1015.4
2018-11-22T04:29:46.323Z,1015.5
2018-11-22T04:30:48.343Z,1015.5
2018-11-22T04:31:50.346Z,1015.5
2018-11-22T04:32:52.650Z,1015.4
2018-11-22T04:33:54.940Z,1015.5
2018-11-22T04:34:56.955Z,1015.4
2018-11-22T04:35:58.971Z,1015.4
2018-11-22T04:37:01.265Z,1015.5
2018-11-22T04:38:03.661Z,1015.4
2018-11-22T04:39:05.684Z,1015.4
2018-11-22T04:40:07.685Z,1015.4
2018-11-22T04:41:09.976Z,1015.4
2018-11-22T04:42:12.370Z,1015.4
2018-11-22T04:43:15.056Z,1015.4
2018-11-22T04:44:17.064Z,1015.4
2018-11-22T04:45:19.466Z,1015.4
2018-11-22T04:46:21.483Z,1015.3
2018-11-22T04:47:23.486Z,1015.3
2018-11-22T04:48:25.508Z,1015.3
2018-11-22T04:49:27.904Z,1015.3
2018-11-22T04:50:29.913Z,1015.3
2018-11-22T04:51:32.310Z,1015.3
2018-11-22T04:52:34.326Z,1015.3
2018-11-22T04:53:36.332Z,1015.3
2018-11-22T04:54:38.350Z,1015.3
2018-11-22T04:55:40.365Z,1015.4
2018-11-22T04:56:42.653Z,1015.3
2018-11-22T04:57:44.666Z,1015.3
2018-11-22T04:58:46.683Z,1015.3
2018-11-22T04:59:48.690Z,1015.3
2018-11-22T05:00:50.706Z,1015.3
2018-11-22T05:01:52.722Z,1015.3
2018-11-22T05:02:55.026Z,1015.3
2018-11-22T05:03:57.045Z,1015.3
2018-11-22T05:04:59.053Z,1015.3
2018-11-22T05:06:01.385Z,1015.3
2018-11-22T05:07:03.389Z,1015.2
2018-11-22T05:08:05.408Z,1015.2
2018-11-22T05:09:07.421Z,1015.3
2018-11-22T05:10:09.434Z,1015.2
2018-11-22T05:11:12.432Z,1015.3
2018-11-22T05:12:14.430Z,1015.3
2018-11-22T05:13:16.453Z,1015.3
2018-11-22T05:14:18.467Z,1015.2
2018-11-22T05:15:20.482Z,1015.2
2018-11-22T05:16:22.484Z,1015.2
2018-11-22T05:17:24.502Z,1015.2
2018-11-22T05:18:26.813Z,1015.2
2018-11-22T05:19:28.816Z,1015.2
2018-11-22T05:20:31.141Z,1015.2
2018-11-22T05:21:33.138Z,1015.2
2018-11-22T05:22:35.148Z,1015.2
2018-11-22T05:23:37.165Z,1015.2
2018-11-22T05:24:39.177Z,1015.2
2018-11-22T05:25:41.185Z,1015.2
2018-11-22T05:26:43.791Z,1015.2
2018-11-22T05:27:45.797Z,1015.2
2018-11-22T05:28:47.810Z,1015.2
2018-11-22T05:29:49.830Z,1015.2
2018-11-22T05:30:51.845Z,1015.2
2018-11-22T05:31:53.848Z,1015.2
2018-11-22T05:32:55.863Z,1015.2
2018-11-22T05:33:57.867Z,1015.2
2018-11-22T05:34:59.873Z,1015.2
2018-11-22T05:36:02.586Z,1015.2
2018-11-22T05:37:04.590Z,1015.2
2018-11-22T05:38:06.604Z,1015.2
2018-11-22T05:39:09.003Z,1015.2
2018-11-22T05:40:11.021Z,1015.3
2018-11-22T05:41:13.029Z,1015.2
2018-11-22T05:42:15.049Z,1015.2
2018-11-22T05:43:17.062Z,1015.3
2018-11-22T05:44:19.065Z,1015.2
2018-11-22T05:45:21.088Z,1015.3
2018-11-22T05:46:23.090Z,1015.2
2018-11-22T05:47:25.104Z,1015.2
2018-11-22T05:48:27.110Z,1015.2
2018-11-22T05:49:29.125Z,1015.2
2018-11-22T05:50:31.133Z,1015.2
2018-11-22T05:51:33.421Z,1015.2
2018-11-22T05:52:35.427Z,1015.2
2018-11-22T05:53:37.448Z,1015.2
2018-11-22T05:54:39.447Z,1015.2
2018-11-22T05:55:41.456Z,1015.2
2018-11-22T05:56:43.473Z,1015.2
2018-11-22T05:57:45.485Z,1015.2
2018-11-22T05:58:47.487Z,1015.2
2018-11-22T05:59:49.503Z,1015.2
2018-11-22T06:00:51.509Z,1015.3
2018-11-22T06:01:53.804Z,1015.2
2018-11-22T06:02:55.825Z,1015.3
2018-11-22T06:03:57.834Z,1015.3
2018-11-22T06:04:59.841Z,1015.2
2018-11-22T06:06:01.866Z,1015.2
2018-11-22T06:07:03.864Z,1015.2
2018-11-22T06:08:05.879Z,1015.3
2018-11-22T06:09:08.181Z,1015.3
2018-11-22T06:10:10.180Z,1015.3
2018-11-22T06:11:12.197Z,1015.2
2018-11-22T06:12:14.209Z,1015.3
2018-11-22T06:13:16.514Z,1015.3
2018-11-22T06:14:18.898Z,1015.3
2018-11-22T06:15:20.911Z,1015.3
2018-11-22T06:16:22.921Z,1015.3
2018-11-22T06:17:24.931Z,1015.3
2018-11-22T06:18:26.954Z,1015.3
2018-11-22T06:19:28.957Z,1015.3
2018-11-22T06:20:31.256Z,1015.3
2018-11-22T06:21:33.265Z,1015.3
2018-11-22T06:22:35.281Z,1015.3
2018-11-22T06:23:37.287Z,1015.3
2018-11-22T06:24:39.303Z,1015.3
2018-11-22T06:25:41.320Z,1015.3
2018-11-22T06:26:43.702Z,1015.4
2018-11-22T06:27:45.719Z,1015.4
2018-11-22T06:28:47.728Z,1015.4
2018-11-22T06:29:50.526Z,1015.4
2018-11-22T06:30:52.534Z,1015.4
2018-11-22T06:31:54.537Z,1015.4
2018-11-22T06:32:56.550Z,1015.4
2018-11-22T06:33:58.555Z,1015.4
2018-11-22T06:35:01.447Z,1015.4
2018-11-22T06:36:03.469Z,1015.4
2018-11-22T06:37:05.483Z,1015.3
2018-11-22T06:38:07.491Z,1015.4
2018-11-22T06:39:09.507Z,1015.4
2018-11-22T06:40:11.514Z,1015.4
2018-11-22T06:41:13.909Z,1015.4
2018-11-22T06:42:15.924Z,1015.4
2018-11-22T06:43:18.306Z,1015.5
2018-11-22T06:44:20.323Z,1015.4
2018-11-22T06:45:22.330Z,1015.4
2018-11-22T06:46:24.351Z,1015.4
2018-11-22T06:47:26.357Z,1015.4
2018-11-22T06:48:28.375Z,1015.4
2018-11-22T06:49:30.387Z,1015.4
2018-11-22T06:50:32.393Z,1015.4
2018-11-22T06:51:34.799Z,1015.4
2018-11-22T06:52:36.798Z,1015.4
2018-11-22T06:53:38.806Z,1015.4
2018-11-22T06:54:40.813Z,1015.4
2018-11-22T06:55:42.826Z,1015.5
2018-11-22T06:56:45.216Z,1015.5
2018-11-22T06:57:47.231Z,1015.4
2018-11-22T06:58:49.460Z,1015.5
2018-11-22T06:59:51.457Z,1015.5
2018-11-22T07:00:53.478Z,1015.5
2018-11-22T07:01:55.501Z,1015.5
2018-11-22T07:02:57.805Z,1015.5
2018-11-22T07:03:59.818Z,1015.5
2018-11-22T07:05:02.518Z,1015.5
2018-11-22T07:06:05.172Z,1015.5
2018-11-22T07:07:07.193Z,1015.5
2018-11-22T07:08:09.497Z,1015.5
2018-11-22T07:09:11.791Z,1015.5
2018-11-22T07:10:13.799Z,1015.5
2018-11-22T07:11:15.817Z,1015.5
2018-11-22T07:12:17.820Z,1015.5
2018-11-22T07:13:19.828Z,1015.5
2018-11-22T07:14:21.830Z,1015.5
2018-11-22T07:15:24.231Z,1015.5
2018-11-22T07:16:26.232Z,1015.5
2018-11-22T07:17:28.249Z,1015.5
2018-11-22T07:18:30.260Z,1015.5
2018-11-22T07:19:32.274Z,1015.5
2018-11-22T07:20:34.281Z,1015.5
2018-11-22T07:21:36.296Z,1015.5
2018-11-22T07:22:38.313Z,1015.4
2018-11-22T07:23:40.316Z,1015.5
2018-11-22T07:24:42.338Z,1015.5
2018-11-22T07:25:44.342Z,1015.5
2018-11-22T07:26:46.650Z,1015.5
2018-11-22T07:27:48.654Z,1015.5
2018-11-22T07:28:50.670Z,1015.5
2018-11-22T07:29:52.676Z,1015.5
2018-11-22T07:30:54.696Z,1015.5
2018-11-22T07:31:56.715Z,1015.5
2018-11-22T07:32:58.719Z,1015.5
2018-11-22T07:34:00.739Z,1015.5
2018-11-22T07:35:03.068Z,1015.5
2018-11-22T07:36:05.070Z,1015.5
2018-11-22T07:37:07.079Z,1015.5
2018-11-22T07:38:09.094Z,1015.5
2018-11-22T07:39:11.102Z,1015.5
2018-11-22T07:40:13.119Z,1015.5
2018-11-22T07:41:15.411Z,1015.5
2018-11-22T07:42:17.412Z,1015.5
2018-11-22T07:43:19.425Z,1015.4
2018-11-22T07:44:21.442Z,1015.4
2018-11-22T07:45:23.447Z,1015.4
2018-11-22T07:46:25.463Z,1015.5
2018-11-22T07:47:27.477Z,1015.4
2018-11-22T07:48:29.482Z,1015.4
2018-11-22T07:49:31.509Z,1015.4
2018-11-22T07:50:33.520Z,1015.5
2018-11-22T07:51:35.816Z,1015.5
2018-11-22T07:52:37.825Z,1015.4
2018-11-22T07:53:39.848Z,1015.5
2018-11-22T07:54:41.855Z,1015.5
2018-11-22T07:55:43.870Z,1015.5
2018-11-22T07:56:45.888Z,1015.5
2018-11-22T07:57:47.890Z,1015.5
2018-11-22T07:58:49.909Z,1015.5
2018-11-22T07:59:51.918Z,1015.5
2018-11-22T08:00:53.938Z,1015.5
2018-11-22T08:01:55.947Z,1015.5
2018-11-22T08:02:57.961Z,1015.5
2018-11-22T08:04:00.351Z,1015.5
2018-11-22T08:05:02.358Z,1015.5
2018-11-22T08:06:04.380Z,1015.5
2018-11-22T08:07:06.380Z,1015.5
2018-11-22T08:08:08.389Z,1015.5
2018-11-22T08:09:10.683Z,1015.5
2018-11-22T08:10:12.698Z,1015.5
2018-11-22T08:11:14.706Z,1015.5
2018-11-22T08:12:16.998Z,1015.5
2018-11-22T08:13:19.005Z,1015.5
2018-11-22T08:14:21.303Z,1015.5
2018-11-22T08:15:23.327Z,1015.5
2018-11-22T08:16:25.628Z,1015.5
2018-11-22T08:17:27.924Z,1015.5
2018-11-22T08:18:29.948Z,1015.5
2018-11-22T08:19:31.955Z,1015.5
2018-11-22T08:20:33.960Z,1015.5
2018-11-22T08:21:38.843Z,1015.5
2018-11-22T08:22:40.865Z,1015.5
2018-11-22T08:23:42.869Z,1015.5
2018-11-22T08:24:44.881Z,1015.5
2018-11-22T08:25:47.171Z,1015.5
2018-11-22T08:26:49.188Z,1015.5
2018-11-22T08:27:51.195Z,1015.5
2018-11-22T08:28:53.207Z,1015.5
2018-11-22T08:29:55.229Z,1015.6
2018-11-22T08:30:57.619Z,1015.5
2018-11-22T08:32:00.039Z,1015.6
2018-11-22T08:33:02.337Z,1015.6
2018-11-22T08:34:04.354Z,1015.6
2018-11-22T08:35:06.360Z,1015.6
2018-11-22T08:36:08.763Z,1015.6
2018-11-22T08:37:11.158Z,1015.6
2018-11-22T08:38:13.212Z,1015.6
2018-11-22T08:39:15.234Z,1015.6
2018-11-22T08:40:17.234Z,1015.7
2018-11-22T08:41:19.244Z,1015.6
2018-11-22T08:42:21.262Z,1015.6
2018-11-22T08:43:23.272Z,1015.7
2018-11-22T08:44:25.275Z,1015.7
2018-11-22T08:45:27.291Z,1015.7
2018-11-22T08:46:29.293Z,1015.7
2018-11-22T08:47:31.305Z,1015.7
2018-11-22T08:48:33.630Z,1015.7
2018-11-22T08:49:35.639Z,1015.7
2018-11-22T08:50:37.642Z,1015.7
2018-11-22T08:51:39.660Z,1015.7
2018-11-22T08:52:41.662Z,1015.7
2018-11-22T08:53:43.978Z,1015.7
2018-11-22T08:54:45.994Z,1015.6
2018-11-22T08:55:47.995Z,1015.7
2018-11-22T08:56:50.013Z,1015.7
2018-11-22T08:57:52.025Z,1015.7
2018-11-22T08:58:54.042Z,1015.7
2018-11-22T08:59:56.350Z,1015.7
2018-11-22T09:00:58.355Z,1015.7
2018-11-22T09:02:00.368Z,1015.7
2018-11-22T09:03:02.390Z,1015.7
2018-11-22T09:04:04.390Z,1015.8
2018-11-22T09:05:06.421Z,1015.7
2018-11-22T09:06:08.744Z,1015.7
2018-11-22T09:07:10.774Z,1015.7
2018-11-22T09:08:13.094Z,1015.7
2018-11-22T09:09:15.128Z,1015.8
2018-11-22T09:10:17.158Z,1015.8
2018-11-22T09:11:19.183Z,1015.8
2018-11-22T09:12:21.522Z,1015.7
2018-11-22T09:13:23.550Z,1015.7
2018-11-22T09:14:25.972Z,1015.7
2018-11-22T09:15:31.712Z,1015.8
2018-11-22T09:16:34.028Z,1015.8
2018-11-22T09:17:36.060Z,1015.8
2018-11-22T09:18:38.100Z,1015.8
2018-11-22T09:19:40.115Z,1015.8
2018-11-22T09:20:42.157Z,1015.8
2018-11-22T09:21:44.195Z,1015.8
2018-11-22T09:22:46.228Z,1015.8
2018-11-22T09:23:48.536Z,1015.8
2018-11-22T09:24:50.581Z,1015.8
2018-11-22T09:25:52.611Z,1015.8
2018-11-22T09:26:55.025Z,1015.8
2018-11-22T09:27:57.079Z,1015.8
2018-11-22T09:28:59.095Z,1015.8
2018-11-22T09:30:01.419Z,1015.8
2018-11-22T09:31:03.752Z,1015.9
2018-11-22T09:32:05.841Z,1015.9
2018-11-22T09:33:07.865Z,1015.9
2018-11-22T09:34:10.522Z,1015.9
2018-11-22T09:35:12.908Z,1015.9
2018-11-22T09:36:15.727Z,1015.9
2018-11-22T09:37:18.043Z,1015.9
2018-11-22T09:38:20.467Z,1015.9
2018-11-22T09:39:22.501Z,1015.9
2018-11-22T09:40:24.531Z,1015.9
2018-11-22T09:41:26.937Z,1015.9
2018-11-22T09:42:28.979Z,1015.8
2018-11-22T09:43:31.019Z,1015.8
2018-11-22T09:44:33.047Z,1015.8
2018-11-22T09:45:35.089Z,1015.8
2018-11-22T09:46:37.706Z,1015.8
2018-11-22T09:47:40.019Z,1015.8
2018-11-22T09:48:42.448Z,1015.8
2018-11-22T09:49:47.331Z,1015.9
2018-11-22T09:50:49.636Z,1015.9
2018-11-22T09:51:51.681Z,1015.8
2018-11-22T09:52:53.697Z,1015.9
2018-11-22T09:53:55.722Z,1015.9
2018-11-22T09:54:57.752Z,1015.8
2018-11-22T09:55:59.779Z,1015.9
2018-11-22T09:57:01.796Z,1015.8
2018-11-22T09:58:03.839Z,1015.9
2018-11-22T09:59:06.015Z,1015.8
2018-11-22T10:00:09.245Z,1015.8
2018-11-22T10:01:11.577Z,1015.8
2018-11-22T10:02:13.875Z,1015.9
2018-11-22T10:03:16.287Z,1015.8
2018-11-22T10:04:19.236Z,1015.8
2018-11-22T10:05:21.912Z,1015.8
2018-11-22T10:06:26.355Z,1015.8
2018-11-22T10:07:28.392Z,1015.8
2018-11-22T10:08:30.807Z,1015.8
2018-11-22T10:09:34.162Z,1015.8
2018-11-22T10:10:36.219Z,1015.8
2018-11-22T10:11:38.812Z,1015.8
2018-11-22T10:12:41.371Z,1015.8
2018-11-22T10:13:44.461Z,1015.8
2018-11-22T10:14:46.794Z,1015.9
2018-11-22T10:15:48.819Z,1015.8
2018-11-22T10:16:50.876Z,1015.8
2018-11-22T10:17:53.466Z,1015.8
2018-11-22T10:18:55.475Z,1015.7
2018-11-22T10:19:57.513Z,1015.7
2018-11-22T10:20:59.540Z,1015.7
2018-11-22T10:22:01.565Z,1015.7
2018-11-22T10:23:04.261Z,1015.8
2018-11-22T10:24:06.405Z,1015.7
2018-11-22T10:25:09.866Z,1015.8
2018-11-22T10:26:11.907Z,1015.8
2018-11-22T10:27:14.233Z,1015.8
2018-11-22T10:28:16.553Z,1015.8
2018-11-22T10:29:19.336Z,1015.7
2018-11-22T10:30:23.494Z,1015.7
2018-11-22T10:31:28.154Z,1015.8
2018-11-22T10:32:30.935Z,1015.8
2018-11-22T10:33:32.977Z,1015.8
2018-11-22T10:34:35.662Z,1015.8
2018-11-22T10:35:37.714Z,1015.7
2018-11-22T10:36:39.750Z,1015.7
2018-11-22T10:37:42.205Z,1015.7
2018-11-22T10:38:45.332Z,1015.7
2018-11-22T10:39:47.399Z,1015.7
2018-11-22T10:40:49.429Z,1015.7
2018-11-22T10:41:51.462Z,1015.7
2018-11-22T10:42:53.815Z,1015.8
2018-11-22T10:43:55.834Z,1015.7
2018-11-22T10:44:57.868Z,1015.8
2018-11-22T10:45:59.904Z,1015.7
2018-11-22T10:47:01.936Z,1015.8
2018-11-22T10:48:04.625Z,1015.8
2018-11-22T10:49:07.448Z,1015.8
2018-11-22T10:50:09.476Z,1015.8
2018-11-22T10:51:11.784Z,1015.8
2018-11-22T10:52:13.832Z,1015.8
2018-11-22T10:53:15.872Z,1015.7
2018-11-22T10:54:18.291Z,1015.7
2018-11-22T10:55:20.326Z,1015.7
2018-11-22T10:56:22.354Z,1015.8
2018-11-22T10:57:24.393Z,1015.7
2018-11-22T10:58:26.696Z,1015.8
2018-11-22T10:59:29.018Z,1015.7
2018-11-22T11:00:31.328Z,1015.7
2018-11-22T11:01:33.358Z,1015.7
2018-11-22T11:02:35.391Z,1015.7
2018-11-22T11:03:37.431Z,1015.7
2018-11-22T11:04:39.738Z,1015.8
2018-11-22T11:05:42.051Z,1015.7
2018-11-22T11:06:44.642Z,1015.7
2018-11-22T11:07:46.655Z,1015.7
2018-11-22T11:08:49.274Z,1015.7
2018-11-22T11:09:51.590Z,1015.7
2018-11-22T11:10:53.667Z,1015.7
2018-11-22T11:11:55.691Z,1015.7
2018-11-22T11:12:58.023Z,1015.7
2018-11-22T11:14:00.056Z,1015.7
2018-11-22T11:15:02.157Z,1015.7
2018-11-22T11:16:04.592Z,1015.7
2018-11-22T11:17:06.889Z,1015.6
2018-11-22T11:18:09.229Z,1015.6
2018-11-22T11:19:11.650Z,1015.6
2018-11-22T11:20:13.685Z,1015.6
2018-11-22T11:21:15.710Z,1015.5
2018-11-22T11:22:17.761Z,1015.6
2018-11-22T11:23:20.072Z,1015.6
2018-11-22T11:24:22.143Z,1015.6
2018-11-22T11:25:26.395Z,1015.6
2018-11-22T11:26:28.423Z,1015.6
2018-11-22T11:27:30.850Z,1015.6
2018-11-22T11:28:32.885Z,1015.6
2018-11-22T11:29:34.912Z,1015.5
2018-11-22T11:30:36.934Z,1015.5
2018-11-22T11:31:38.971Z,1015.6
2018-11-22T11:32:41.302Z,1015.6
2018-11-22T11:33:43.332Z,1015.6
2018-11-22T11:34:45.698Z,1015.6
2018-11-22T11:35:47.729Z,1015.5
2018-11-22T11:36:50.097Z,1015.5
2018-11-22T11:37:52.128Z,1015.6
2018-11-22T11:38:54.201Z,1015.6
2018-11-22T11:40:01.187Z,1015.5
2018-11-22T11:41:03.882Z,1015.5
2018-11-22T11:42:05.935Z,1015.5
2018-11-22T11:43:07.966Z,1015.5
2018-11-22T11:44:10.282Z,1015.5
2018-11-22T11:45:12.308Z,1015.5
2018-11-22T11:46:14.347Z,1015.5
2018-11-22T11:47:16.653Z,1015.4
2018-11-22T11:48:18.679Z,1015.4
2018-11-22T11:49:20.728Z,1015.5
2018-11-22T11:50:22.749Z,1015.4
2018-11-22T11:51:24.783Z,1015.4
2018-11-22T11:52:27.388Z,1015.4
2018-11-22T11:53:41.725Z,1015.4
2018-11-22T11:54:44.175Z,1015.4
2018-11-22T11:55:46.483Z,1015.4
2018-11-22T11:56:48.513Z,1015.4
2018-11-22T11:57:50.546Z,1015.3
2018-11-22T11:58:52.890Z,1015.3
2018-11-22T11:59:55.295Z,1015.3
2018-11-22T12:00:57.708Z,1015.3
2018-11-22T12:01:59.739Z,1015.3
2018-11-22T12:03:01.770Z,1015.3
2018-11-22T12:04:04.467Z,1015.3
2018-11-22T12:05:06.509Z,1015.3
2018-11-22T12:06:08.529Z,1015.3
2018-11-22T12:07:10.867Z,1015.3
2018-11-22T12:08:12.908Z,1015.3
2018-11-22T12:09:14.996Z,1015.2
2018-11-22T12:10:17.036Z,1015.3
2018-11-22T12:11:19.131Z,1015.3
2018-11-22T12:12:21.157Z,1015.3
2018-11-22T12:13:23.193Z,1015.3
2018-11-22T12:14:25.594Z,1015.3
2018-11-22T12:15:27.924Z,1015.3
2018-11-22T12:16:29.949Z,1015.2
2018-11-22T12:17:32.259Z,1015.2
2018-11-22T12:18:37.334Z,1015.3
2018-11-22T12:19:40.049Z,1015.2
2018-11-22T12:20:42.074Z,1015.2
2018-11-22T12:21:44.397Z,1015.3
2018-11-22T12:22:46.830Z,1015.2
2018-11-22T12:23:49.127Z,1015.2
2018-11-22T12:24:51.163Z,1015.2
2018-11-22T12:25:53.860Z,1015.2
2018-11-22T12:26:56.181Z,1015.2
2018-11-22T12:27:58.202Z,1015.2
2018-11-22T12:29:00.238Z,1015.2
2018-11-22T12:30:02.838Z,1015.2
2018-11-22T12:31:07.289Z,1015.2
2018-11-22T12:32:09.691Z,1015.2
2018-11-22T12:33:11.727Z,1015.2
2018-11-22T12:34:13.770Z,1015.2
2018-11-22T12:35:16.199Z,1015.2
2018-11-22T12:36:18.250Z,1015.1
2018-11-22T12:37:21.506Z,1015.2
2018-11-22T12:38:23.552Z,1015.2
2018-11-22T12:39:25.573Z,1015.2
2018-11-22T12:40:27.886Z,1015.1
2018-11-22T12:41:30.209Z,1015.1
2018-11-22T12:42:32.632Z,1015.1
2018-11-22T12:43:35.040Z,1015.2
2018-11-22T12:44:37.095Z,1015.2
2018-11-22T12:45:39.686Z,1015.1
2018-11-22T12:46:41.717Z,1015.1
2018-11-22T12:47:44.047Z,1015.1
2018-11-22T12:48:46.460Z,1015
2018-11-22T12:49:48.495Z,1015
2018-11-22T12:50:50.526Z,1015
2018-11-22T12:51:52.566Z,1015
2018-11-22T12:52:54.588Z,1015
2018-11-22T12:53:56.631Z,1015.1
2018-11-22T12:54:58.657Z,1015
2018-11-22T12:56:00.957Z,1015
2018-11-22T12:57:03.008Z,1015